Saint Peter Port, United Kingdom
Current Conditions -  °F | °C
As of 4:20 PM on Thursday 18 Dec 2014 (Local Time) from EGJB Reporting Station
Broken Clouds Broken Clouds  
Wind Chill: 12°   Ceiling: 300
Heat Index: 12°   Visibility: 5mi
Dew Point: 11°   Wind: 23mph
Humidity: 94%   Direction: 240°WSW
Pressure: 30.06"   Gusts: NA
Location:  49.46°N, 2.54°W
Report Text: EGJB 181520Z 24020KT 8000 BKN003 12/11 Q1018
Loading
Personal Weather Stations






























Interactive Weather Map New forecast layout! Learn more

10-Day Weather Forecast

Advertisements
Track Severe Weather on mobile